sensor_id;sensor_type;location;lat;lon;timestamp;pressure;altitude;pressure_sealevel;temperature;humidity
6668;BME280;3370;47.712;9.082;2023-03-08T00:01:18;95878.31;;;3.09;65.05
6668;BME280;3370;47.712;9.082;2023-03-08T00:04:04;95879.91;;;3.12;64.20
6668;BME280;3370;47.712;9.082;2023-03-08T00:06:50;95882.72;;;3.04;64.91
6668;BME280;3370;47.712;9.082;2023-03-08T00:09:37;95891.31;;;3.00;64.84
6668;BME280;3370;47.712;9.082;2023-03-08T00:12:23;95886.38;;;2.95;65.39
6668;BME280;3370;47.712;9.082;2023-03-08T00:15:10;95885.34;;;3.01;64.93
6668;BME280;3370;47.712;9.082;2023-03-08T00:17:56;95890.78;;;3.15;65.42
6668;BME280;3370;47.712;9.082;2023-03-08T00:20:42;95896.09;;;3.09;65.65
6668;BME280;3370;47.712;9.082;2023-03-08T00:23:28;95889.47;;;3.05;64.73
6668;BME280;3370;47.712;9.082;2023-03-08T00:26:14;95884.38;;;3.05;66.21
6668;BME280;3370;47.712;9.082;2023-03-08T00:29:00;95896.34;;;3.01;66.22
6668;BME280;3370;47.712;9.082;2023-03-08T00:31:47;95891.88;;;3.08;65.17
6668;BME280;3370;47.712;9.082;2023-03-08T00:34:33;95880.72;;;3.14;66.11
6668;BME280;3370;47.712;9.082;2023-03-08T00:37:20;95888.97;;;3.19;64.29
6668;BME280;3370;47.712;9.082;2023-03-08T00:40:07;95875.00;;;3.07;66.17
6668;BME280;3370;47.712;9.082;2023-03-08T00:42:53;95864.75;;;3.10;65.51
6668;BME280;3370;47.712;9.082;2023-03-08T00:45:39;95869.50;;;2.94;65.38
6668;BME280;3370;47.712;9.082;2023-03-08T00:48:26;95876.44;;;2.89;66.51
6668;BME280;3370;47.712;9.082;2023-03-08T00:51:15;95877.09;;;2.96;65.95
6668;BME280;3370;47.712;9.082;2023-03-08T00:54:01;95884.63;;;2.97;66.44
6668;BME280;3370;47.712;9.082;2023-03-08T00:56:47;95879.53;;;2.97;66.27
6668;BME280;3370;47.712;9.082;2023-03-08T00:59:33;95875.41;;;2.95;67.60
6668;BME280;3370;47.712;9.082;2023-03-08T01:02:19;95880.66;;;2.90;65.97
6668;BME280;3370;47.712;9.082;2023-03-08T01:05:07;95877.09;;;2.96;66.01
6668;BME280;3370;47.712;9.082;2023-03-08T01:07:55;95868.59;;;2.95;65.24
6668;BME280;3370;47.712;9.082;2023-03-08T01:10:50;95856.09;;;2.91;65.50
6668;BME280;3370;47.712;9.082;2023-03-08T01:13:36;95847.56;;;2.92;64.78
6668;BME280;3370;47.712;9.082;2023-03-08T01:16:26;95844.53;;;2.82;65.00
6668;BME280;3370;47.712;9.082;2023-03-08T01:19:13;95835.09;;;2.85;64.93
6668;BME280;3370;47.712;9.082;2023-03-08T01:21:59;95838.41;;;2.87;65.43
6668;BME280;3370;47.712;9.082;2023-03-08T01:24:47;95831.00;;;2.81;65.51
6668;BME280;3370;47.712;9.082;2023-03-08T01:27:33;95829.25;;;2.83;65.93
6668;BME280;3370;47.712;9.082;2023-03-08T01:30:20;95825.16;;;2.79;66.64
6668;BME280;3370;47.712;9.082;2023-03-08T01:33:06;95817.81;;;2.95;66.47
6668;BME280;3370;47.712;9.082;2023-03-08T01:35:52;95811.25;;;2.90;67.20
6668;BME280;3370;47.712;9.082;2023-03-08T01:38:38;95805.06;;;2.97;67.68
6668;BME280;3370;47.712;9.082;2023-03-08T01:41:28;95790.38;;;2.81;68.29
6668;BME280;3370;47.712;9.082;2023-03-08T01:44:17;95787.38;;;2.70;69.06
6668;BME280;3370;47.712;9.082;2023-03-08T01:47:03;95778.38;;;2.86;68.58
6668;BME280;3370;47.712;9.082;2023-03-08T01:49:50;95777.78;;;2.78;69.23
6668;BME280;3370;47.712;9.082;2023-03-08T01:52:50;95781.09;;;2.80;69.33
6668;BME280;3370;47.712;9.082;2023-03-08T01:55:38;95770.50;;;2.69;70.45
6668;BME280;3370;47.712;9.082;2023-03-08T01:58:24;95767.75;;;2.75;70.36
6668;BME280;3370;47.712;9.082;2023-03-08T02:01:11;95759.47;;;2.94;69.96
6668;BME280;3370;47.712;9.082;2023-03-08T02:03:57;95748.94;;;3.04;68.86
6668;BME280;3370;47.712;9.082;2023-03-08T02:06:43;95752.09;;;2.87;69.65
6668;BME280;3370;47.712;9.082;2023-03-08T02:09:30;95751.84;;;2.94;71.16
6668;BME280;3370;47.712;9.082;2023-03-08T02:12:16;95751.75;;;2.97;71.85
6668;BME280;3370;47.712;9.082;2023-03-08T02:15:05;95749.94;;;3.00;71.65
6668;BME280;3370;47.712;9.082;2023-03-08T02:17:53;95747.09;;;2.84;72.15
6668;BME280;3370;47.712;9.082;2023-03-08T02:20:40;95748.53;;;2.92;71.92
6668;BME280;3370;47.712;9.082;2023-03-08T02:23:26;95736.13;;;2.84;71.50
6668;BME280;3370;47.712;9.082;2023-03-08T02:26:13;95735.31;;;2.83;71.03
6668;BME280;3370;47.712;9.082;2023-03-08T02:28:59;95737.13;;;3.03;71.03
6668;BME280;3370;47.712;9.082;2023-03-08T02:31:45;95732.97;;;3.01;70.81
6668;BME280;3370;47.712;9.082;2023-03-08T02:34:31;95727.97;;;2.99;71.09
6668;BME280;3370;47.712;9.082;2023-03-08T02:37:17;95735.06;;;2.90;71.45
6668;BME280;3370;47.712;9.082;2023-03-08T02:40:04;95729.19;;;2.89;71.43
6668;BME280;3370;47.712;9.082;2023-03-08T02:42:50;95728.47;;;2.85;71.99
6668;BME280;3370;47.712;9.082;2023-03-08T02:45:36;95725.94;;;2.85;71.84
6668;BME280;3370;47.712;9.082;2023-03-08T02:48:22;95721.50;;;2.91;70.53
6668;BME280;3370;47.712;9.082;2023-03-08T02:51:08;95724.16;;;2.87;70.59
6668;BME280;3370;47.712;9.082;2023-03-08T02:53:54;95720.63;;;2.92;70.10
6668;BME280;3370;47.712;9.082;2023-03-08T02:56:40;95713.84;;;2.92;69.62
6668;BME280;3370;47.712;9.082;2023-03-08T02:59:26;95711.22;;;2.94;69.74
6668;BME280;3370;47.712;9.082;2023-03-08T03:02:13;95699.00;;;3.05;69.47
6668;BME280;3370;47.712;9.082;2023-03-08T03:04:59;95702.50;;;3.01;69.67
6668;BME280;3370;47.712;9.082;2023-03-08T03:07:45;95688.69;;;3.08;70.24
6668;BME280;3370;47.712;9.082;2023-03-08T03:10:31;95685.00;;;2.93;70.76
6668;BME280;3370;47.712;9.082;2023-03-08T03:13:19;95675.91;;;2.87;71.68
6668;BME280;3370;47.712;9.082;2023-03-08T03:16:14;95676.16;;;2.81;71.81
6668;BME280;3370;47.712;9.082;2023-03-08T03:19:00;95655.66;;;2.62;72.08
6668;BME280;3370;47.712;9.082;2023-03-08T03:21:46;95653.19;;;2.61;72.47
6668;BME280;3370;47.712;9.082;2023-03-08T03:24:32;95651.50;;;2.61;72.63
6668;BME280;3370;47.712;9.082;2023-03-08T03:27:18;95649.16;;;2.55;72.78
6668;BME280;3370;47.712;9.082;2023-03-08T03:30:07;95646.78;;;2.51;72.64
6668;BME280;3370;47.712;9.082;2023-03-08T03:32:53;95635.66;;;2.55;72.99
6668;BME280;3370;47.712;9.082;2023-03-08T03:35:40;95631.13;;;2.63;72.35
6668;BME280;3370;47.712;9.082;2023-03-08T03:38:27;95628.50;;;2.64;71.07
6668;BME280;3370;47.712;9.082;2023-03-08T03:41:16;95623.19;;;2.48;71.76
6668;BME280;3370;47.712;9.082;2023-03-08T03:44:03;95609.06;;;2.41;72.51
6668;BME280;3370;47.712;9.082;2023-03-08T03:46:49;95606.53;;;2.41;72.71
6668;BME280;3370;47.712;9.082;2023-03-08T03:49:35;95599.78;;;2.40;72.64
6668;BME280;3370;47.712;9.082;2023-03-08T03:52:21;95595.19;;;2.50;72.18
6668;BME280;3370;47.712;9.082;2023-03-08T03:55:08;95595.03;;;2.55;71.24
6668;BME280;3370;47.712;9.082;2023-03-08T03:57:54;95590.22;;;2.48;72.11
6668;BME280;3370;47.712;9.082;2023-03-08T04:00:41;95597.91;;;2.45;72.18
6668;BME280;3370;47.712;9.082;2023-03-08T04:03:27;95584.09;;;2.30;72.52
6668;BME280;3370;47.712;9.082;2023-03-08T04:06:20;95588.78;;;2.41;72.42
6668;BME280;3370;47.712;9.082;2023-03-08T04:09:12;95577.19;;;2.34;72.82
6668;BME280;3370;47.712;9.082;2023-03-08T04:11:58;95579.59;;;2.37;72.86
6668;BME280;3370;47.712;9.082;2023-03-08T04:14:47;95577.25;;;2.33;73.10
6668;BME280;3370;47.712;9.082;2023-03-08T04:17:33;95569.69;;;2.31;73.45
6668;BME280;3370;47.712;9.082;2023-03-08T04:20:19;95571.44;;;2.29;73.81
6668;BME280;3370;47.712;9.082;2023-03-08T04:23:06;95564.94;;;2.45;73.59
6668;BME280;3370;47.712;9.082;2023-03-08T04:25:52;95558.91;;;2.48;72.79
6668;BME280;3370;47.712;9.082;2023-03-08T04:28:39;95551.34;;;2.46;73.05
6668;BME280;3370;47.712;9.082;2023-03-08T04:31:28;95555.44;;;2.51;72.75
6668;BME280;3370;47.712;9.082;2023-03-08T04:34:14;95553.88;;;2.46;73.00
6668;BME280;3370;47.712;9.082;2023-03-08T04:37:00;95545.50;;;2.44;73.19
6668;BME280;3370;47.712;9.082;2023-03-08T04:39:46;95555.19;;;2.35;74.20
6668;BME280;3370;47.712;9.082;2023-03-08T04:42:33;95551.16;;;2.29;74.78
6668;BME280;3370;47.712;9.082;2023-03-08T04:45:19;95547.84;;;2.27;74.84
6668;BME280;3370;47.712;9.082;2023-03-08T04:48:05;95540.91;;;2.32;74.14
6668;BME280;3370;47.712;9.082;2023-03-08T04:50:55;95526.28;;;2.39;73.13
6668;BME280;3370;47.712;9.082;2023-03-08T04:53:42;95519.78;;;2.32;73.88
6668;BME280;3370;47.712;9.082;2023-03-08T04:56:30;95518.84;;;2.34;73.80
6668;BME280;3370;47.712;9.082;2023-03-08T04:59:16;95518.72;;;2.37;73.83
6668;BME280;3370;47.712;9.082;2023-03-08T05:02:02;95521.31;;;2.36;74.41
6668;BME280;3370;47.712;9.082;2023-03-08T05:04:49;95529.72;;;2.38;74.54
6668;BME280;3370;47.712;9.082;2023-03-08T05:07:35;95528.88;;;2.37;74.64
6668;BME280;3370;47.712;9.082;2023-03-08T05:10:21;95535.72;;;2.35;74.81
6668;BME280;3370;47.712;9.082;2023-03-08T05:13:07;95538.44;;;2.30;74.67
6668;BME280;3370;47.712;9.082;2023-03-08T05:15:53;95528.22;;;2.32;74.37
6668;BME280;3370;47.712;9.082;2023-03-08T05:18:39;95523.22;;;2.30;74.38
6668;BME280;3370;47.712;9.082;2023-03-08T05:21:26;95523.97;;;2.33;74.32
6668;BME280;3370;47.712;9.082;2023-03-08T05:24:12;95527.22;;;2.36;74.38
6668;BME280;3370;47.712;9.082;2023-03-08T05:26:58;95521.84;;;2.44;73.42
6668;BME280;3370;47.712;9.082;2023-03-08T05:29:44;95515.91;;;2.45;73.71
6668;BME280;3370;47.712;9.082;2023-03-08T05:32:30;95510.91;;;2.43;73.78
6668;BME280;3370;47.712;9.082;2023-03-08T05:35:16;95494.00;;;2.42;73.78
6668;BME280;3370;47.712;9.082;2023-03-08T05:38:03;95494.31;;;2.57;72.49
6668;BME280;3370;47.712;9.082;2023-03-08T05:40:49;95484.28;;;2.54;73.13
6668;BME280;3370;47.712;9.082;2023-03-08T05:43:35;95489.28;;;2.55;72.97
6668;BME280;3370;47.712;9.082;2023-03-08T05:46:21;95484.16;;;2.57;72.38
6668;BME280;3370;47.712;9.082;2023-03-08T05:49:07;95479.91;;;2.57;72.62
6668;BME280;3370;47.712;9.082;2023-03-08T05:51:53;95484.06;;;2.60;73.01
6668;BME280;3370;47.712;9.082;2023-03-08T05:54:39;95489.22;;;2.57;73.40
6668;BME280;3370;47.712;9.082;2023-03-08T05:57:26;95483.16;;;2.61;72.97
6668;BME280;3370;47.712;9.082;2023-03-08T06:00:13;95475.53;;;2.61;73.10
6668;BME280;3370;47.712;9.082;2023-03-08T06:03:00;95467.00;;;2.63;73.25
6668;BME280;3370;47.712;9.082;2023-03-08T06:05:49;95467.88;;;2.62;74.21
6668;BME280;3370;47.712;9.082;2023-03-08T06:08:35;95467.75;;;2.65;74.24
6668;BME280;3370;47.712;9.082;2023-03-08T06:11:22;95470.94;;;2.71;73.96
6668;BME280;3370;47.712;9.082;2023-03-08T06:14:08;95471.72;;;2.73;73.73
6668;BME280;3370;47.712;9.082;2023-03-08T06:16:54;95473.28;;;2.75;73.37
6668;BME280;3370;47.712;9.082;2023-03-08T06:19:40;95470.63;;;2.78;73.26
6668;BME280;3370;47.712;9.082;2023-03-08T06:22:26;95462.91;;;2.81;73.31
6668;BME280;3370;47.712;9.082;2023-03-08T06:25:13;95458.47;;;2.86;73.03
6668;BME280;3370;47.712;9.082;2023-03-08T06:27:59;95450.72;;;2.90;72.89
6668;BME280;3370;47.712;9.082;2023-03-08T06:30:49;95441.41;;;2.90;73.33
6668;BME280;3370;47.712;9.082;2023-03-08T06:33:35;95430.03;;;2.99;73.13
6668;BME280;3370;47.712;9.082;2023-03-08T06:36:21;95433.22;;;3.04;73.13
6668;BME280;3370;47.712;9.082;2023-03-08T06:39:07;95422.28;;;3.02;73.34
6668;BME280;3370;47.712;9.082;2023-03-08T06:41:54;95438.66;;;3.15;73.48
6668;BME280;3370;47.712;9.082;2023-03-08T06:44:40;95437.91;;;3.13;73.71
6668;BME280;3370;47.712;9.082;2023-03-08T06:47:28;95442.06;;;3.16;74.12
6668;BME280;3370;47.712;9.082;2023-03-08T06:50:16;95418.50;;;3.12;74.53
6668;BME280;3370;47.712;9.082;2023-03-08T06:53:02;95410.72;;;3.15;73.92
6668;BME280;3370;47.712;9.082;2023-03-08T06:55:48;95398.41;;;3.26;73.76
6668;BME280;3370;47.712;9.082;2023-03-08T06:58:35;95409.97;;;3.34;73.61
6668;BME280;3370;47.712;9.082;2023-03-08T07:01:21;95394.44;;;3.40;74.06
6668;BME280;3370;47.712;9.082;2023-03-08T07:04:07;95381.00;;;3.38;75.11
6668;BME280;3370;47.712;9.082;2023-03-08T07:06:53;95387.59;;;3.42;75.52
6668;BME280;3370;47.712;9.082;2023-03-08T07:09:39;95394.06;;;3.49;75.74
6668;BME280;3370;47.712;9.082;2023-03-08T07:12:25;95404.50;;;3.62;75.45
6668;BME280;3370;47.712;9.082;2023-03-08T07:15:13;95406.00;;;3.66;74.36
6668;BME280;3370;47.712;9.082;2023-03-08T07:18:00;95409.63;;;3.81;73.42
6668;BME280;3370;47.712;9.082;2023-03-08T07:20:55;95424.88;;;3.81;74.31
6668;BME280;3370;47.712;9.082;2023-03-08T07:23:42;95419.63;;;3.84;74.38
6668;BME280;3370;47.712;9.082;2023-03-08T07:26:28;95399.16;;;3.87;74.46
6668;BME280;3370;47.712;9.082;2023-03-08T07:29:14;95379.56;;;3.89;73.90
6668;BME280;3370;47.712;9.082;2023-03-08T07:32:00;95388.56;;;3.96;73.66
6668;BME280;3370;47.712;9.082;2023-03-08T07:34:46;95375.97;;;4.12;71.90
6668;BME280;3370;47.712;9.082;2023-03-08T07:37:32;95373.97;;;4.19;70.43
6668;BME280;3370;47.712;9.082;2023-03-08T07:40:18;95359.41;;;4.22;70.92
6668;BME280;3370;47.712;9.082;2023-03-08T07:43:05;95361.66;;;4.29;71.17
6668;BME280;3370;47.712;9.082;2023-03-08T07:45:51;95366.78;;;4.46;70.22
6668;BME280;3370;47.712;9.082;2023-03-08T07:48:37;95369.22;;;4.48;71.07
6668;BME280;3370;47.712;9.082;2023-03-08T07:51:23;95368.56;;;4.61;70.73
6668;BME280;3370;47.712;9.082;2023-03-08T07:54:10;95367.28;;;4.53;70.46
6668;BME280;3370;47.712;9.082;2023-03-08T07:56:57;95368.34;;;4.66;69.68
6668;BME280;3370;47.712;9.082;2023-03-08T07:59:44;95359.88;;;4.83;69.76
6668;BME280;3370;47.712;9.082;2023-03-08T08:02:30;95365.72;;;5.03;68.95
6668;BME280;3370;47.712;9.082;2023-03-08T08:05:17;95374.78;;;5.08;70.97
6668;BME280;3370;47.712;9.082;2023-03-08T08:08:03;95378.38;;;5.04;70.51
6668;BME280;3370;47.712;9.082;2023-03-08T08:10:49;95379.88;;;4.91;71.09
6668;BME280;3370;47.712;9.082;2023-03-08T08:13:35;95370.59;;;4.90;68.77
6668;BME280;3370;47.712;9.082;2023-03-08T08:16:21;95379.59;;;4.79;68.33
6668;BME280;3370;47.712;9.082;2023-03-08T08:19:10;95385.72;;;4.75;68.75
6668;BME280;3370;47.712;9.082;2023-03-08T08:21:57;95382.41;;;4.91;68.66
6668;BME280;3370;47.712;9.082;2023-03-08T08:24:43;95380.47;;;4.96;71.38
6668;BME280;3370;47.712;9.082;2023-03-08T08:27:29;95384.38;;;5.03;71.69
6668;BME280;3370;47.712;9.082;2023-03-08T08:30:16;95375.97;;;5.18;68.53
6668;BME280;3370;47.712;9.082;2023-03-08T08:33:02;95367.41;;;5.19;68.48
6668;BME280;3370;47.712;9.082;2023-03-08T08:35:48;95368.22;;;5.20;69.08
6668;BME280;3370;47.712;9.082;2023-03-08T08:38:34;95375.50;;;5.44;68.27
6668;BME280;3370;47.712;9.082;2023-03-08T08:41:22;95368.13;;;5.39;68.09
6668;BME280;3370;47.712;9.082;2023-03-08T08:44:08;95367.97;;;5.42;68.57
6668;BME280;3370;47.712;9.082;2023-03-08T08:46:54;95358.88;;;5.36;68.37
6668;BME280;3370;47.712;9.082;2023-03-08T08:49:40;95343.59;;;5.36;68.96
6668;BME280;3370;47.712;9.082;2023-03-08T08:52:26;95339.53;;;5.50;68.98
6668;BME280;3370;47.712;9.082;2023-03-08T08:55:12;95334.91;;;5.56;70.11
6668;BME280;3370;47.712;9.082;2023-03-08T08:57:59;95326.03;;;5.64;70.59
6668;BME280;3370;47.712;9.082;2023-03-08T09:00:45;95322.44;;;5.68;69.36
6668;BME280;3370;47.712;9.082;2023-03-08T09:03:31;95324.41;;;5.63;69.11
6668;BME280;3370;47.712;9.082;2023-03-08T09:06:20;95326.38;;;5.73;69.29
6668;BME280;3370;47.712;9.082;2023-03-08T09:09:06;95338.72;;;5.81;68.76
6668;BME280;3370;47.712;9.082;2023-03-08T09:11:52;95335.09;;;5.85;69.61
6668;BME280;3370;47.712;9.082;2023-03-08T09:14:38;95332.66;;;5.84;70.18
6668;BME280;3370;47.712;9.082;2023-03-08T09:17:25;95334.94;;;5.72;69.21
6668;BME280;3370;47.712;9.082;2023-03-08T09:20:11;95346.97;;;5.86;68.94
6668;BME280;3370;47.712;9.082;2023-03-08T09:22:57;95336.22;;;5.97;70.34
6668;BME280;3370;47.712;9.082;2023-03-08T09:25:43;95328.28;;;6.02;70.22
6668;BME280;3370;47.712;9.082;2023-03-08T09:28:29;95328.53;;;6.13;70.66
6668;BME280;3370;47.712;9.082;2023-03-08T09:31:17;95330.25;;;6.12;70.15
6668;BME280;3370;47.712;9.082;2023-03-08T09:34:03;95332.97;;;5.93;68.87
6668;BME280;3370;47.712;9.082;2023-03-08T09:36:53;95328.03;;;6.06;68.94
6668;BME280;3370;47.712;9.082;2023-03-08T09:39:39;95322.13;;;6.06;69.69
6668;BME280;3370;47.712;9.082;2023-03-08T09:42:29;95314.22;;;6.10;69.24
6668;BME280;3370;47.712;9.082;2023-03-08T09:45:26;95305.44;;;6.30;70.43
6668;BME280;3370;47.712;9.082;2023-03-08T09:48:22;95304.06;;;6.55;69.74
6668;BME280;3370;47.712;9.082;2023-03-08T09:51:13;95308.00;;;6.61;68.60
6668;BME280;3370;47.712;9.082;2023-03-08T09:54:06;95304.66;;;6.75;67.94
6668;BME280;3370;47.712;9.082;2023-03-08T09:56:53;95309.63;;;7.21;66.88
6668;BME280;3370;47.712;9.082;2023-03-08T09:59:54;95312.19;;;7.21;67.81
6668;BME280;3370;47.712;9.082;2023-03-08T10:09:34;95302.47;;;7.69;66.60
6668;BME280;3370;47.712;9.082;2023-03-08T10:15:51;95309.72;;;7.90;66.21
6668;BME280;3370;47.712;9.082;2023-03-08T10:19:01;95316.69;;;7.87;65.72
6668;BME280;3370;47.712;9.082;2023-03-08T10:21:51;95316.25;;;7.66;64.93
6668;BME280;3370;47.712;9.082;2023-03-08T10:25:00;95308.94;;;7.75;66.70
6668;BME280;3370;47.712;9.082;2023-03-08T10:27:48;95317.63;;;7.72;66.84
6668;BME280;3370;47.712;9.082;2023-03-08T10:30:51;95311.59;;;7.73;67.18
6668;BME280;3370;47.712;9.082;2023-03-08T10:33:37;95301.78;;;7.94;67.03
6668;BME280;3370;47.712;9.082;2023-03-08T10:36:24;95309.34;;;8.23;65.87
6668;BME280;3370;47.712;9.082;2023-03-08T10:39:10;95313.13;;;8.44;67.59
6668;BME280;3370;47.712;9.082;2023-03-08T10:41:59;95314.13;;;8.15;66.96
6668;BME280;3370;47.712;9.082;2023-03-08T10:44:58;95322.38;;;7.78;67.85
6668;BME280;3370;47.712;9.082;2023-03-08T10:47:55;95315.41;;;8.22;68.48
6668;BME280;3370;47.712;9.082;2023-03-08T10:50:41;95312.44;;;8.01;69.96
6668;BME280;3370;47.712;9.082;2023-03-08T10:53:28;95328.09;;;7.96;69.76
6668;BME280;3370;47.712;9.082;2023-03-08T10:59:27;95309.88;;;8.01;70.60
6668;BME280;3370;47.712;9.082;2023-03-08T11:02:18;95316.84;;;8.26;70.51
6668;BME280;3370;47.712;9.082;2023-03-08T11:05:24;95317.50;;;8.15;72.04
6668;BME280;3370;47.712;9.082;2023-03-08T11:08:20;95315.72;;;8.57;70.65
6668;BME280;3370;47.712;9.082;2023-03-08T11:11:12;95315.88;;;8.94;69.22
6668;BME280;3370;47.712;9.082;2023-03-08T11:13:58;95341.53;;;8.54;70.50
6668;BME280;3370;47.712;9.082;2023-03-08T11:16:52;95338.31;;;8.78;71.10
6668;BME280;3370;47.712;9.082;2023-03-08T11:20:25;95340.47;;;8.44;71.38
6668;BME280;3370;47.712;9.082;2023-03-08T11:23:35;95343.72;;;7.92;72.93
6668;BME280;3370;47.712;9.082;2023-03-08T11:26:43;95344.00;;;8.01;73.66
6668;BME280;3370;47.712;9.082;2023-03-08T11:36:20;95332.38;;;8.23;74.62
6668;BME280;3370;47.712;9.082;2023-03-08T11:39:17;95344.50;;;8.06;75.31
6668;BME280;3370;47.712;9.082;2023-03-08T11:42:28;95344.28;;;7.82;76.51
6668;BME280;3370;47.712;9.082;2023-03-08T11:45:38;95321.22;;;7.97;76.60
6668;BME280;3370;47.712;9.082;2023-03-08T11:55:35;95334.72;;;8.13;75.98
6668;BME280;3370;47.712;9.082;2023-03-08T11:58:51;95335.47;;;8.01;77.27
6668;BME280;3370;47.712;9.082;2023-03-08T12:01:59;95348.66;;;7.95;77.08
6668;BME280;3370;47.712;9.082;2023-03-08T12:08:31;95339.88;;;7.99;78.30
6668;BME280;3370;47.712;9.082;2023-03-08T12:11:23;95343.06;;;8.02;78.27
6668;BME280;3370;47.712;9.082;2023-03-08T12:14:28;95330.88;;;8.06;77.91
6668;BME280;3370;47.712;9.082;2023-03-08T12:17:21;95329.25;;;8.05;78.66
6668;BME280;3370;47.712;9.082;2023-03-08T12:20:14;95332.97;;;8.14;78.26
6668;BME280;3370;47.712;9.082;2023-03-08T12:26:27;95338.03;;;8.01;78.07
6668;BME280;3370;47.712;9.082;2023-03-08T12:29:36;95339.41;;;7.92;78.99
6668;BME280;3370;47.712;9.082;2023-03-08T12:32:24;95356.97;;;7.98;79.00
6668;BME280;3370;47.712;9.082;2023-03-08T12:41:22;95344.22;;;8.11;78.68
6668;BME280;3370;47.712;9.082;2023-03-08T12:44:27;95346.75;;;8.25;78.61
6668;BME280;3370;47.712;9.082;2023-03-08T12:50:09;95339.53;;;8.59;78.14
6668;BME280;3370;47.712;9.082;2023-03-08T12:53:01;95347.56;;;8.53;78.12
6668;BME280;3370;47.712;9.082;2023-03-08T13:02:20;95345.66;;;8.70;78.27
6668;BME280;3370;47.712;9.082;2023-03-08T13:05:35;95335.19;;;8.60;82.38
6668;BME280;3370;47.712;9.082;2023-03-08T13:08:31;95344.81;;;8.56;81.86
6668;BME280;3370;47.712;9.082;2023-03-08T13:11:19;95328.66;;;8.69;81.25
6668;BME280;3370;47.712;9.082;2023-03-08T13:14:38;95332.69;;;8.98;81.69
6668;BME280;3370;47.712;9.082;2023-03-08T13:26:13;95314.72;;;9.50;75.92
6668;BME280;3370;47.712;9.082;2023-03-08T13:29:11;95304.88;;;9.44;76.00
6668;BME280;3370;47.712;9.082;2023-03-08T13:32:03;95308.50;;;9.28;77.01
6668;BME280;3370;47.712;9.082;2023-03-08T13:35:02;95310.47;;;9.25;78.04
6668;BME280;3370;47.712;9.082;2023-03-08T13:37:58;95311.56;;;9.20;78.09
6668;BME280;3370;47.712;9.082;2023-03-08T13:40:51;95301.41;;;9.06;78.73
6668;BME280;3370;47.712;9.082;2023-03-08T13:43:37;95299.69;;;9.07;78.54
6668;BME280;3370;47.712;9.082;2023-03-08T13:46:23;95293.31;;;9.12;78.55
6668;BME280;3370;47.712;9.082;2023-03-08T13:49:16;95287.59;;;9.09;78.40
6668;BME280;3370;47.712;9.082;2023-03-08T13:52:16;95292.00;;;9.19;78.05
6668;BME280;3370;47.712;9.082;2023-03-08T13:55:06;95292.72;;;9.09;79.99
6668;BME280;3370;47.712;9.082;2023-03-08T13:58:00;95288.19;;;8.99;80.23
6668;BME280;3370;47.712;9.082;2023-03-08T14:01:13;95286.88;;;9.07;80.34
6668;BME280;3370;47.712;9.082;2023-03-08T14:04:10;95284.41;;;9.05;81.11
6668;BME280;3370;47.712;9.082;2023-03-08T14:07:03;95283.88;;;9.13;81.34
6668;BME280;3370;47.712;9.082;2023-03-08T14:09:49;95261.63;;;9.13;80.36
6668;BME280;3370;47.712;9.082;2023-03-08T14:12:35;95255.03;;;9.35;78.55
6668;BME280;3370;47.712;9.082;2023-03-08T14:15:22;95244.00;;;9.58;78.28
6668;BME280;3370;47.712;9.082;2023-03-08T14:18:23;95225.00;;;9.61;77.16
6668;BME280;3370;47.712;9.082;2023-03-08T14:21:16;95224.78;;;9.64;77.25
6668;BME280;3370;47.712;9.082;2023-03-08T14:24:04;95223.19;;;9.50;77.42
6668;BME280;3370;47.712;9.082;2023-03-08T14:30:13;95221.75;;;9.59;77.26
6668;BME280;3370;47.712;9.082;2023-03-08T14:36:01;95220.84;;;9.71;76.59
6668;BME280;3370;47.712;9.082;2023-03-08T14:38:48;95220.47;;;9.65;77.00
6668;BME280;3370;47.712;9.082;2023-03-08T14:41:36;95207.31;;;9.69;77.40
6668;BME280;3370;47.712;9.082;2023-03-08T14:44:26;95209.88;;;9.69;77.85
6668;BME280;3370;47.712;9.082;2023-03-08T14:47:28;95197.75;;;9.95;78.04
6668;BME280;3370;47.712;9.082;2023-03-08T14:50:25;95216.66;;;9.94;81.25
6668;BME280;3370;47.712;9.082;2023-03-08T14:53:36;95204.16;;;9.90;77.93
6668;BME280;3370;47.712;9.082;2023-03-08T14:56:23;95199.84;;;9.90;79.18
6668;BME280;3370;47.712;9.082;2023-03-08T14:59:09;95182.50;;;10.05;77.62
6668;BME280;3370;47.712;9.082;2023-03-08T15:01:55;95180.13;;;10.26;76.67
6668;BME280;3370;47.712;9.082;2023-03-08T15:04:43;95178.69;;;10.69;77.03
6668;BME280;3370;47.712;9.082;2023-03-08T15:07:33;95181.50;;;10.77;73.97
6668;BME280;3370;47.712;9.082;2023-03-08T15:10:30;95192.34;;;10.58;73.95
6668;BME280;3370;47.712;9.082;2023-03-08T15:13:20;95183.72;;;10.48;74.34
6668;BME280;3370;47.712;9.082;2023-03-08T15:16:08;95179.28;;;10.61;75.20
6668;BME280;3370;47.712;9.082;2023-03-08T15:18:55;95172.25;;;10.41;74.48
6668;BME280;3370;47.712;9.082;2023-03-08T15:21:41;95167.44;;;10.36;74.33
6668;BME280;3370;47.712;9.082;2023-03-08T15:24:27;95168.13;;;10.38;74.59
6668;BME280;3370;47.712;9.082;2023-03-08T15:27:14;95166.50;;;10.37;74.40
6668;BME280;3370;47.712;9.082;2023-03-08T15:30:01;95166.94;;;10.31;75.57
6668;BME280;3370;47.712;9.082;2023-03-08T15:32:47;95168.38;;;10.11;75.86
6668;BME280;3370;47.712;9.082;2023-03-08T15:35:33;95165.00;;;10.10;76.35
6668;BME280;3370;47.712;9.082;2023-03-08T15:38:20;95178.84;;;9.96;75.74
6668;BME280;3370;47.712;9.082;2023-03-08T15:41:11;95163.44;;;9.96;80.18
6668;BME280;3370;47.712;9.082;2023-03-08T15:43:57;95168.66;;;9.84;84.60
6668;BME280;3370;47.712;9.082;2023-03-08T15:46:43;95166.91;;;9.60;85.63
6668;BME280;3370;47.712;9.082;2023-03-08T15:49:29;95160.78;;;9.50;87.18
6668;BME280;3370;47.712;9.082;2023-03-08T15:52:15;95149.06;;;9.34;87.94
6668;BME280;3370;47.712;9.082;2023-03-08T15:55:01;95155.56;;;9.14;87.30
6668;BME280;3370;47.712;9.082;2023-03-08T15:57:48;95168.50;;;9.13;86.86
6668;BME280;3370;47.712;9.082;2023-03-08T16:00:34;95167.91;;;8.96;90.49
6668;BME280;3370;47.712;9.082;2023-03-08T16:03:20;95151.31;;;8.89;91.20
6668;BME280;3370;47.712;9.082;2023-03-08T16:06:12;95137.47;;;8.92;91.37
6668;BME280;3370;47.712;9.082;2023-03-08T16:08:58;95129.41;;;8.72;94.31
6668;BME280;3370;47.712;9.082;2023-03-08T16:11:44;95143.25;;;8.70;92.92
6668;BME280;3370;47.712;9.082;2023-03-08T16:14:30;95161.81;;;8.48;94.09
6668;BME280;3370;47.712;9.082;2023-03-08T16:17:17;95152.88;;;8.53;94.74
6668;BME280;3370;47.712;9.082;2023-03-08T16:20:04;95169.81;;;8.43;95.88
6668;BME280;3370;47.712;9.082;2023-03-08T16:22:51;95172.38;;;8.43;97.20
6668;BME280;3370;47.712;9.082;2023-03-08T16:25:38;95169.25;;;8.25;98.16
6668;BME280;3370;47.712;9.082;2023-03-08T16:28:27;95159.13;;;8.23;98.07
6668;BME280;3370;47.712;9.082;2023-03-08T16:31:14;95169.97;;;8.14;100.00
6668;BME280;3370;47.712;9.082;2023-03-08T16:34:02;95166.06;;;8.09;100.00
6668;BME280;3370;47.712;9.082;2023-03-08T16:36:48;95178.09;;;7.94;100.00